Flag for Russia

Past Weather in 55°46'59"N, 49°10'00"E, Russia — Yesterday and Last 2 Weeks

Currently: 9 °F. Passing clouds. (Weather station: Kazan', Russia). See more current weather

Past Weather in 55°46'59"N, 49°10'00"E — Graph

°F

55°46'59"N, 49°10'00"E Temperature Yesterday

Maximum temperature yesterday: 16 °F (at 1:30 pm)
Minimum temperature yesterday: 5 °F (at 6:00 am)
Average temperature yesterday: 11 °F

High & Low Weather Summary for the Past Weeks

 TemperatureHumidityPressure
High23 °F (Feb 19, 1:00 pm)100% (Feb 19, 6:00 am)30.95 "Hg (Feb 19, 6:00 am)
Low-20 °F (Feb 11, 6:00 am)62% (Feb 24, 11:30 am)29.68 "Hg (Feb 10, 2:00 am)
Average5 °F81%30.43 "Hg
* Reported Feb 10 2:00 am — Feb 25 2:30 am, 55°46'59"N, 49°10'00"E. Weather by CustomWeather, © 2024

Note: Actual official high and low records may vary slightly from our data, if they occured in-between our weather recording intervals... More about our weather records

55°46'59"N, 49°10'00"E Weather History for the Previous 24 Hours

Scroll right to see more
 ConditionsComfort  
Time TempWeatherWind HumidityBarometerVisibility
2:30 am
Sun, Feb 25
9 °FPassing clouds.8 mph78%30.74 "HgN/A
2:00 am10 °FOvercast.10 mph79%30.74 "HgN/A
1:30 am9 °FOvercast.10 mph85%30.74 "HgN/A
1:00 am9 °FOvercast.13 mph78%30.74 "HgN/A
12:30 am10 °FOvercast.10 mph79%30.74 "HgN/A
12:00 am12 °FOvercast.8 mph79%30.74 "HgN/A
11:30 pm
Sat, Feb 24
12 °FOvercast.10 mph79%30.74 "HgN/A
11:00 pm14 °FOvercast.10 mph79%30.74 "HgN/A
10:30 pm14 °FOvercast.10 mph79%30.74 "HgN/A
10:00 pm16 °FOvercast.10 mph73%30.74 "HgN/A
9:30 pm16 °FOvercast.10 mph79%30.74 "HgN/A
9:00 pm16 °FOvercast.10 mph79%30.74 "HgN/A
8:30 pm16 °FOvercast.8 mph73%30.74 "HgN/A
8:00 pm16 °FPassing clouds.10 mph73%30.74 "HgN/A
7:30 pm16 °FPassing clouds.10 mph73%30.74 "HgN/A
7:00 pm14 °FPassing clouds.10 mph79%30.74 "HgN/A
6:30 pm14 °FPassing clouds.10 mph79%30.74 "HgN/A
6:00 pm14 °FPassing clouds.10 mph79%30.74 "HgN/A
5:30 pm14 °FPassing clouds.10 mph79%30.74 "HgN/A
5:00 pm12 °FScattered clouds.8 mph85%30.74 "HgN/A
4:30 pm12 °FScattered clouds.10 mph79%30.74 "HgN/A
4:00 pm12 °FScattered clouds.10 mph73%30.72 "HgN/A
3:30 pm12 °FSunny.8 mph73%30.72 "Hg10 mi
3:00 pm14 °FSunny.6 mph73%30.72 "Hg10 mi
2:30 pm16 °FSunny.13 mph67%30.72 "Hg10 mi
2:00 pm16 °FSunny.13 mph67%30.72 "Hg10 mi
1:30 pm16 °FSunny.10 mph67%30.72 "Hg10 mi
1:00 pm14 °FSunny.10 mph67%30.72 "Hg10 mi
12:30 pm12 °FSunny.10 mph73%30.72 "Hg10 mi
12:00 pm12 °FSunny.8 mph67%30.72 "Hg10 mi
11:30 am12 °FSunny.10 mph62%30.72 "Hg10 mi
11:00 am10 °FSunny.10 mph67%30.72 "Hg10 mi
10:30 am10 °FSunny.10 mph67%30.72 "Hg10 mi
10:00 am9 °FSunny.10 mph66%30.69 "Hg10 mi
9:30 am7 °FSunny.10 mph72%30.69 "Hg10 mi
9:00 am7 °FSunny.10 mph72%30.69 "Hg10 mi
8:30 am7 °FSunny.10 mph72%30.69 "Hg10 mi
8:00 am5 °FSunny.8 mph78%30.69 "Hg10 mi
7:30 am7 °FSunny.10 mph72%30.69 "Hg10 mi
7:00 am7 °FSunny.8 mph78%30.69 "Hg10 mi
6:30 am7 °FClear.10 mph78%30.69 "Hg10 mi
6:00 am5 °FClear.8 mph85%30.66 "Hg10 mi
5:30 am7 °FClear.13 mph78%30.66 "Hg10 mi
4:30 am7 °FClear.10 mph78%30.66 "Hg10 mi
4:00 am7 °FClear.8 mph78%30.66 "Hg10 mi
Weather by CustomWeather, © 2024

See weather overview